createdAt,value
2023-02-21T00:00:36.556Z,4.93
2023-02-21T00:03:22.649Z,4.90
2023-02-21T00:06:09.106Z,4.30
2023-02-21T00:08:55.680Z,4.45
2023-02-21T00:11:41.849Z,4.62
2023-02-21T00:14:27.839Z,4.45
2023-02-21T00:17:14.229Z,4.68
2023-02-21T00:20:01.045Z,4.60
2023-02-21T00:22:47.462Z,5.40
2023-02-21T00:25:33.792Z,4.80
2023-02-21T00:28:20.628Z,5.30
2023-02-21T00:31:07.185Z,4.70
2023-02-21T00:33:55.894Z,4.90
2023-02-21T00:36:42.456Z,4.85
2023-02-21T00:39:28.968Z,4.85
2023-02-21T00:42:15.183Z,4.80
2023-02-21T00:45:01.493Z,4.68
2023-02-21T00:47:47.826Z,4.43
2023-02-21T00:50:34.606Z,4.85
2023-02-21T00:53:21.109Z,4.00
2023-02-21T00:56:07.582Z,4.18
2023-02-21T00:58:53.789Z,3.72
2023-02-21T01:01:40.036Z,4.18
2023-02-21T01:04:26.402Z,3.87
2023-02-21T01:07:13.011Z,3.65
2023-02-21T01:09:59.476Z,3.60
2023-02-21T01:12:46.092Z,3.85
2023-02-21T01:15:32.678Z,4.18
2023-02-21T01:18:18.772Z,4.20
2023-02-21T01:21:05.230Z,4.00
2023-02-21T01:23:52.081Z,3.87
2023-02-21T01:26:38.565Z,3.42
2023-02-21T01:29:25.027Z,3.15
2023-02-21T01:32:11.428Z,4.12
2023-02-21T01:34:57.634Z,4.20
2023-02-21T01:37:44.139Z,4.00
2023-02-21T01:40:35.316Z,4.47
2023-02-21T01:43:21.531Z,4.87
2023-02-21T01:46:10.444Z,4.12
2023-02-21T01:48:57.264Z,4.30
2023-02-21T01:51:48.068Z,4.93
2023-02-21T01:54:35.008Z,5.95
2023-02-21T01:57:23.029Z,6.55
2023-02-21T02:00:11.408Z,5.00
2023-02-21T02:03:14.676Z,5.62
2023-02-21T02:06:04.663Z,5.72
2023-02-21T02:08:52.422Z,5.28
2023-02-21T02:12:04.592Z,5.43
2023-02-21T02:14:32.197Z,5.10
2023-02-21T02:17:29.887Z,5.45
2023-02-21T02:20:03.164Z,5.00
2023-02-21T02:22:55.536Z,5.47
2023-02-21T02:25:32.291Z,5.12
2023-02-21T02:28:24.759Z,5.00
2023-02-21T02:31:07.703Z,5.28
2023-02-21T02:34:02.218Z,5.50
2023-02-21T02:36:37.059Z,5.32
2023-02-21T02:39:15.157Z,7.10
2023-02-21T02:41:53.980Z,6.55
2023-02-21T02:44:30.174Z,6.62
2023-02-21T02:47:02.338Z,6.72
2023-02-21T02:49:34.184Z,7.15
2023-02-21T02:52:10.276Z,7.55
2023-02-21T02:54:38.224Z,6.20
2023-02-21T02:57:11.752Z,7.60
2023-02-21T02:59:44.452Z,6.72
2023-02-21T03:02:14.712Z,6.62
2023-02-21T03:05:03.558Z,6.12
2023-02-21T03:07:58.581Z,7.32
2023-02-21T03:10:45.992Z,5.93
2023-02-21T03:13:33.608Z,6.53
2023-02-21T03:16:20.725Z,6.57
2023-02-21T03:18:58.035Z,6.70
2023-02-21T03:21:37.275Z,6.12
2023-02-21T03:24:07.668Z,6.22
2023-02-21T03:26:39.653Z,7.28
2023-02-21T03:29:08.232Z,8.18
2023-02-21T03:31:43.334Z,8.50
2023-02-21T03:34:11.403Z,7.50
2023-02-21T03:36:40.139Z,9.00
2023-02-21T03:39:08.006Z,6.82
2023-02-21T03:41:35.760Z,7.45
2023-02-21T03:44:03.520Z,7.05
2023-02-21T03:46:31.286Z,7.30
2023-02-21T03:48:59.396Z,10.90
2023-02-21T03:51:27.297Z,7.20
2023-02-21T03:53:54.995Z,7.68
2023-02-21T03:56:26.171Z,6.95
2023-02-21T03:58:55.886Z,6.90
2023-02-21T04:01:23.773Z,7.15
2023-02-21T04:03:51.703Z,7.82
2023-02-21T04:06:19.652Z,6.78
2023-02-21T04:08:47.362Z,7.57
2023-02-21T04:11:19.735Z,7.05
2023-02-21T04:13:47.417Z,6.50
2023-02-21T04:16:15.266Z,6.55
2023-02-21T04:18:43.052Z,6.37
2023-02-21T04:21:10.860Z,6.22
2023-02-21T04:23:38.490Z,6.40
2023-02-21T04:26:06.440Z,6.15
2023-02-21T04:28:34.160Z,6.55
2023-02-21T04:31:01.788Z,6.78
2023-02-21T04:33:29.421Z,6.65
2023-02-21T04:35:57.133Z,6.45
2023-02-21T04:38:24.940Z,6.97
2023-02-21T04:40:52.658Z,6.80
2023-02-21T04:43:22.240Z,6.28
2023-02-21T04:45:50.375Z,6.97
2023-02-21T04:48:18.448Z,7.45
2023-02-21T04:50:46.093Z,7.07
2023-02-21T04:53:14.368Z,6.25
2023-02-21T04:55:42.051Z,5.40
2023-02-21T04:58:09.713Z,6.10
2023-02-21T05:00:37.378Z,5.90
2023-02-21T05:03:05.174Z,6.03
2023-02-21T05:05:32.866Z,6.10
2023-02-21T05:08:00.564Z,6.00
2023-02-21T05:10:43.548Z,11.38
2023-02-21T05:13:12.845Z,20.80
2023-02-21T05:15:40.740Z,37.63
2023-02-21T05:18:08.517Z,43.45
2023-02-21T05:20:36.220Z,41.75
2023-02-21T05:23:13.099Z,34.90
2023-02-21T05:25:41.713Z,22.37
2023-02-21T05:28:09.859Z,20.12
2023-02-21T05:30:37.651Z,16.90
2023-02-21T05:33:05.431Z,15.60
2023-02-21T05:35:33.159Z,15.27
2023-02-21T05:38:00.913Z,15.32
2023-02-21T05:40:28.588Z,15.02
2023-02-21T05:42:56.275Z,15.00
2023-02-21T05:45:23.972Z,13.98
2023-02-21T05:47:51.690Z,12.80
2023-02-21T05:50:19.588Z,11.20
2023-02-21T05:52:47.320Z,12.05
2023-02-21T05:55:14.976Z,9.98
2023-02-21T05:57:42.632Z,10.65
2023-02-21T06:00:19.346Z,11.82
2023-02-21T06:02:47.290Z,10.75
2023-02-21T06:05:15.138Z,9.05
2023-02-21T06:07:42.776Z,9.25
2023-02-21T06:10:10.907Z,8.35
2023-02-21T06:12:38.564Z,10.63
2023-02-21T06:15:08.490Z,12.68
2023-02-21T06:17:38.278Z,11.68
2023-02-21T06:20:07.218Z,12.65
2023-02-21T06:22:34.978Z,11.02
2023-02-21T06:25:02.834Z,12.70
2023-02-21T06:27:30.493Z,15.13
2023-02-21T06:29:58.201Z,17.52
2023-02-21T06:32:25.836Z,11.73
2023-02-21T06:34:53.511Z,10.88
2023-02-21T06:37:21.257Z,13.50
2023-02-21T06:39:48.945Z,15.38
2023-02-21T06:42:18.570Z,14.30
2023-02-21T06:44:47.685Z,16.87
2023-02-21T06:47:15.894Z,14.27
2023-02-21T06:49:44.206Z,11.90
2023-02-21T06:52:12.469Z,13.35
2023-02-21T06:54:40.346Z,10.45
2023-02-21T06:57:08.111Z,9.18
2023-02-21T06:59:35.927Z,9.32
2023-02-21T07:02:05.881Z,9.50
2023-02-21T07:04:33.707Z,11.40
2023-02-21T07:07:01.396Z,10.73
2023-02-21T07:09:29.112Z,8.82
2023-02-21T07:11:56.874Z,9.63
2023-02-21T07:14:24.549Z,8.57
2023-02-21T07:16:52.253Z,8.52
2023-02-21T07:19:20.944Z,8.75
2023-02-21T07:21:48.685Z,8.02
2023-02-21T07:24:16.337Z,8.57
2023-02-21T07:26:44.081Z,7.68
2023-02-21T07:29:12.066Z,7.55
2023-02-21T07:31:39.866Z,8.48
2023-02-21T07:34:07.617Z,8.35
2023-02-21T07:36:35.274Z,7.68
2023-02-21T07:39:02.912Z,8.68
2023-02-21T07:41:30.708Z,8.10
2023-02-21T07:43:58.436Z,7.50
2023-02-21T07:46:29.654Z,8.32
2023-02-21T07:48:58.154Z,7.60
2023-02-21T07:51:29.868Z,7.43
2023-02-21T07:53:58.198Z,7.40
2023-02-21T07:56:25.992Z,7.07
2023-02-21T07:58:53.688Z,6.60
2023-02-21T08:01:25.363Z,6.57
2023-02-21T08:03:53.182Z,6.95
2023-02-21T08:06:20.944Z,7.07
2023-02-21T08:08:48.669Z,6.30
2023-02-21T08:11:16.619Z,6.95
2023-02-21T08:13:44.502Z,6.57
2023-02-21T08:16:12.331Z,6.97
2023-02-21T08:18:40.077Z,7.32
2023-02-21T08:21:11.566Z,7.03
2023-02-21T08:23:39.292Z,6.45
2023-02-21T08:26:08.213Z,6.62
2023-02-21T08:28:35.980Z,5.95
2023-02-21T08:31:04.100Z,6.40
2023-02-21T08:33:31.944Z,9.05
2023-02-21T08:35:59.754Z,7.90
2023-02-21T08:38:27.420Z,7.95
2023-02-21T08:40:57.469Z,7.43
2023-02-21T08:43:26.463Z,8.15
2023-02-21T08:45:54.185Z,7.50
2023-02-21T08:48:22.072Z,9.40
2023-02-21T08:50:49.832Z,7.70
2023-02-21T08:53:17.620Z,8.50
2023-02-21T08:55:45.736Z,7.43
2023-02-21T08:58:13.978Z,7.35
2023-02-21T09:00:41.887Z,8.40
2023-02-21T09:05:37.398Z,7.75
2023-02-21T09:08:06.530Z,9.38
2023-02-21T09:10:35.107Z,9.18
2023-02-21T09:13:03.823Z,8.77
2023-02-21T09:15:31.644Z,9.02
2023-02-21T09:17:59.691Z,9.98
2023-02-21T09:20:27.875Z,10.20
2023-02-21T09:22:55.894Z,10.88
2023-02-21T09:25:26.023Z,9.48
2023-02-21T09:27:55.051Z,9.88
2023-02-21T09:30:27.475Z,10.50
2023-02-21T09:32:56.125Z,9.02
2023-02-21T09:35:24.498Z,9.85
2023-02-21T09:37:52.592Z,10.35
2023-02-21T09:40:28.810Z,10.02
2023-02-21T09:42:59.988Z,10.40
2023-02-21T09:45:32.235Z,10.57
2023-02-21T09:48:05.936Z,10.95
2023-02-21T09:50:41.006Z,11.00
2023-02-21T09:53:09.721Z,11.27
2023-02-21T09:55:41.674Z,10.60
2023-02-21T09:58:15.035Z,10.90
2023-02-21T10:00:46.507Z,10.48
2023-02-21T10:03:35.435Z,11.73
2023-02-21T10:06:50.549Z,10.27
2023-02-21T10:09:22.792Z,10.55
2023-02-21T10:11:50.418Z,10.52
2023-02-21T10:14:33.258Z,9.32
2023-02-21T10:17:20.361Z,9.40
2023-02-21T10:19:54.283Z,9.27
2023-02-21T10:22:28.092Z,10.45
2023-02-21T10:24:56.008Z,9.02
2023-02-21T10:27:27.501Z,9.45
2023-02-21T10:30:06.462Z,10.50
2023-02-21T10:32:34.530Z,11.38
2023-02-21T10:35:02.314Z,11.30
2023-02-21T10:37:46.020Z,10.55
2023-02-21T10:40:31.849Z,9.38
2023-02-21T10:43:10.362Z,10.55
2023-02-21T10:45:47.095Z,10.68
2023-02-21T10:48:16.472Z,10.38
2023-02-21T10:50:45.937Z,10.35
2023-02-21T10:53:32.213Z,10.27
2023-02-21T10:56:16.385Z,10.60
2023-02-21T10:59:00.668Z,10.32
2023-02-21T11:01:28.303Z,9.80
2023-02-21T11:04:08.249Z,9.43
2023-02-21T11:06:40.034Z,10.20
2023-02-21T11:09:47.195Z,10.13
2023-02-21T11:12:20.527Z,11.20
2023-02-21T11:15:00.087Z,10.38
2023-02-21T11:17:29.661Z,10.70
2023-02-21T11:20:09.347Z,9.68
2023-02-21T11:22:40.470Z,10.30
2023-02-21T11:25:27.978Z,11.98
2023-02-21T11:28:04.600Z,10.73
2023-02-21T11:30:36.905Z,11.07
2023-02-21T11:33:06.271Z,11.73
2023-02-21T11:35:37.405Z,13.38
2023-02-21T11:38:29.512Z,13.55
2023-02-21T11:40:57.343Z,13.30
2023-02-21T11:43:34.852Z,15.65
2023-02-21T11:46:14.320Z,13.35
2023-02-21T11:48:51.963Z,13.75
2023-02-21T11:51:30.849Z,14.32
2023-02-21T11:53:58.598Z,13.52
2023-02-21T11:57:00.185Z,13.23
2023-02-21T11:59:42.393Z,12.57
2023-02-21T12:02:25.386Z,13.95
2023-02-21T12:05:08.324Z,12.95
2023-02-21T12:07:37.226Z,13.25
2023-02-21T12:10:07.965Z,12.02
2023-02-21T12:13:09.678Z,12.35
2023-02-21T12:15:43.486Z,11.50
2023-02-21T12:18:25.908Z,11.57
2023-02-21T12:21:10.040Z,11.90
2023-02-21T12:23:53.919Z,11.88
2023-02-21T12:26:45.776Z,11.02
2023-02-21T12:29:32.986Z,9.90
2023-02-21T12:32:25.723Z,11.45
2023-02-21T12:35:24.516Z,11.18
2023-02-21T12:38:05.349Z,9.90
2023-02-21T12:40:42.199Z,10.70
2023-02-21T12:43:33.752Z,10.98
2023-02-21T12:46:19.373Z,11.35
2023-02-21T12:49:27.570Z,10.75
2023-02-21T12:52:00.860Z,11.30
2023-02-21T12:54:53.782Z,10.82
2023-02-21T12:57:44.499Z,11.90
2023-02-21T13:00:18.881Z,11.12
2023-02-21T13:03:04.596Z,10.23
2023-02-21T13:05:43.606Z,9.57
2023-02-21T13:08:21.984Z,9.52
2023-02-21T13:10:56.964Z,10.48
2023-02-21T13:13:33.320Z,10.85
2023-02-21T13:16:08.408Z,11.68
2023-02-21T13:18:41.064Z,10.63
2023-02-21T13:21:23.700Z,11.43
2023-02-21T13:24:19.410Z,10.52
2023-02-21T13:26:53.124Z,10.50
2023-02-21T13:29:44.018Z,8.73
2023-02-21T13:32:15.179Z,9.25
2023-02-21T13:34:47.114Z,10.65
2023-02-21T13:37:24.768Z,10.27
2023-02-21T13:40:02.703Z,8.73
2023-02-21T13:42:31.914Z,7.97
2023-02-21T13:45:25.267Z,7.60
2023-02-21T13:47:59.096Z,7.90
2023-02-21T13:50:38.123Z,9.05
2023-02-21T13:53:19.883Z,7.05
2023-02-21T13:55:59.797Z,7.62
2023-02-21T13:58:38.103Z,7.30
2023-02-21T14:01:32.114Z,7.62
2023-02-21T14:03:59.799Z,6.75
2023-02-21T14:06:38.606Z,7.18
2023-02-21T14:09:18.757Z,6.85
2023-02-21T14:11:50.700Z,6.78
2023-02-21T14:14:21.273Z,7.12
2023-02-21T14:16:54.177Z,6.57
2023-02-21T14:19:26.725Z,7.95
2023-02-21T14:22:06.617Z,7.97
2023-02-21T14:24:38.891Z,8.70
2023-02-21T14:27:29.377Z,8.45
2023-02-21T14:29:59.915Z,8.55
2023-02-21T14:32:39.924Z,8.52
2023-02-21T14:35:35.226Z,8.77
2023-02-21T14:38:16.670Z,7.95
2023-02-21T14:40:56.098Z,7.90
2023-02-21T14:43:39.087Z,7.40
2023-02-21T14:46:14.058Z,7.65
2023-02-21T14:49:08.831Z,7.72
2023-02-21T14:52:19.947Z,7.20
2023-02-21T14:55:03.331Z,6.85
2023-02-21T14:57:49.623Z,6.55
2023-02-21T15:00:20.201Z,6.65
2023-02-21T15:02:57.715Z,6.62
2023-02-21T15:05:39.056Z,6.82
2023-02-21T15:08:14.068Z,6.35
2023-02-21T15:10:46.617Z,5.57
2023-02-21T15:13:25.049Z,5.30
2023-02-21T15:15:58.888Z,6.22
2023-02-21T15:18:30.889Z,6.35
2023-02-21T15:21:04.383Z,6.32
2023-02-21T15:23:32.703Z,6.90
2023-02-21T15:26:03.770Z,7.15
2023-02-21T15:28:33.620Z,6.62
2023-02-21T15:31:05.630Z,7.30
2023-02-21T15:33:39.223Z,7.07
2023-02-21T15:36:18.268Z,6.57
2023-02-21T15:39:00.622Z,6.62
2023-02-21T15:41:38.338Z,6.18
2023-02-21T15:44:08.415Z,5.62
2023-02-21T15:46:45.839Z,5.87
2023-02-21T15:49:26.254Z,6.37
2023-02-21T15:51:54.550Z,6.55
2023-02-21T15:54:22.188Z,7.55
2023-02-21T15:57:00.847Z,6.70
2023-02-21T15:59:29.317Z,7.25
2023-02-21T16:02:15.469Z,6.97
2023-02-21T16:04:46.809Z,7.68
2023-02-21T16:07:38.415Z,6.85
2023-02-21T16:10:10.235Z,7.53
2023-02-21T16:12:41.552Z,6.90
2023-02-21T16:15:24.354Z,6.68
2023-02-21T16:17:58.412Z,7.12
2023-02-21T16:20:35.602Z,6.85
2023-02-21T16:23:32.176Z,6.60
2023-02-21T16:26:21.720Z,6.00
2023-02-21T16:28:49.357Z,7.22
2023-02-21T16:31:25.228Z,7.15
2023-02-21T16:33:53.025Z,7.22
2023-02-21T16:36:28.509Z,7.80
2023-02-21T16:38:57.915Z,7.75
2023-02-21T16:41:26.084Z,7.65
2023-02-21T16:43:53.769Z,8.57
2023-02-21T16:46:29.919Z,7.95
2023-02-21T16:48:58.669Z,7.97
2023-02-21T16:51:26.424Z,7.72
2023-02-21T16:53:54.107Z,7.72
2023-02-21T16:56:21.862Z,8.57
2023-02-21T16:58:55.051Z,9.10
2023-02-21T17:01:28.401Z,8.90
2023-02-21T17:03:56.756Z,9.18
2023-02-21T17:06:27.074Z,9.02
2023-02-21T17:08:54.747Z,9.35
2023-02-21T17:11:23.450Z,9.15
2023-02-21T17:13:51.106Z,8.68
2023-02-21T17:16:19.829Z,8.73
2023-02-21T17:18:48.015Z,8.00
2023-02-21T17:21:15.930Z,8.55
2023-02-21T17:23:44.070Z,9.77
2023-02-21T17:26:13.440Z,8.10
2023-02-21T17:28:41.235Z,8.38
2023-02-21T17:31:09.061Z,8.13
2023-02-21T17:33:36.858Z,9.07
2023-02-21T17:36:04.969Z,9.88
2023-02-21T17:38:34.619Z,9.27
2023-02-21T17:41:02.739Z,10.43
2023-02-21T17:43:30.399Z,8.85
2023-02-21T17:45:58.150Z,9.20
2023-02-21T17:48:25.868Z,9.02
2023-02-21T17:50:53.717Z,9.40
2023-02-21T17:53:21.415Z,9.27
2023-02-21T17:55:49.308Z,9.65
2023-02-21T17:58:16.991Z,9.25
2023-02-21T18:00:46.371Z,9.60
2023-02-21T18:03:14.065Z,9.18
2023-02-21T18:05:41.794Z,10.00
2023-02-21T18:08:09.575Z,9.68
2023-02-21T18:10:37.225Z,9.23
2023-02-21T18:13:05.035Z,10.13
2023-02-21T18:15:33.104Z,9.15
2023-02-21T18:18:07.253Z,8.57
2023-02-21T18:20:36.442Z,9.65
2023-02-21T18:23:05.136Z,8.80
2023-02-21T18:25:33.276Z,9.73
2023-02-21T18:28:01.974Z,8.70
2023-02-21T18:30:29.873Z,6.80
2023-02-21T18:32:57.958Z,5.80
2023-02-21T18:35:25.654Z,7.00
2023-02-21T18:37:53.432Z,6.12
2023-02-21T18:40:21.225Z,7.05
2023-02-21T18:42:48.914Z,5.82
2023-02-21T18:45:16.620Z,5.37
2023-02-21T18:47:44.303Z,5.40
2023-02-21T18:50:12.106Z,4.87
2023-02-21T18:52:39.800Z,5.32
2023-02-21T18:55:08.110Z,5.28
2023-02-21T18:57:35.786Z,5.20
2023-02-21T19:00:07.558Z,5.18
2023-02-21T19:02:38.003Z,5.70
2023-02-21T19:05:05.855Z,4.90
2023-02-21T19:07:37.400Z,5.00
2023-02-21T19:10:05.417Z,4.87
2023-02-21T19:12:33.122Z,5.10
2023-02-21T19:15:00.782Z,4.75
2023-02-21T19:17:28.813Z,5.25
2023-02-21T19:19:56.538Z,5.37
2023-02-21T19:22:24.275Z,5.05
2023-02-21T19:24:52.027Z,5.18
2023-02-21T19:27:19.783Z,5.10
2023-02-21T19:29:48.443Z,4.70
2023-02-21T19:32:16.877Z,4.95
2023-02-21T19:34:45.611Z,4.65
2023-02-21T19:37:13.427Z,4.90
2023-02-21T19:39:41.156Z,5.50
2023-02-21T19:42:10.231Z,6.53
2023-02-21T19:44:38.472Z,6.60
2023-02-21T19:47:06.204Z,8.90
2023-02-21T19:49:33.931Z,8.57
2023-02-21T19:52:01.635Z,7.65
2023-02-21T19:54:32.491Z,8.50
2023-02-21T19:57:00.230Z,6.97
2023-02-21T19:59:30.296Z,7.40
2023-02-21T20:01:58.095Z,7.07
2023-02-21T20:04:26.241Z,7.90
2023-02-21T20:06:54.041Z,7.07
2023-02-21T20:09:21.789Z,7.87
2023-02-21T20:11:49.502Z,6.72
2023-02-21T20:14:18.650Z,7.93
2023-02-21T20:16:47.643Z,7.22
2023-02-21T20:19:15.893Z,7.62
2023-02-21T20:21:43.717Z,7.30
2023-02-21T20:24:12.067Z,8.18
2023-02-21T20:26:40.192Z,7.90
2023-02-21T20:29:08.249Z,7.60
2023-02-21T20:31:38.559Z,7.85
2023-02-21T20:34:07.934Z,8.43
2023-02-21T20:36:38.935Z,8.27
2023-02-21T20:39:19.660Z,8.07
2023-02-21T20:41:48.051Z,7.68
2023-02-21T20:44:16.340Z,8.07
2023-02-21T20:46:44.011Z,8.70
2023-02-21T20:49:15.297Z,8.52
2023-02-21T20:51:44.398Z,9.48
2023-02-21T20:54:23.098Z,9.27
2023-02-21T20:56:53.864Z,9.70
2023-02-21T20:59:28.671Z,9.48
2023-02-21T21:01:56.910Z,9.63
2023-02-21T21:04:30.449Z,8.52
2023-02-21T21:07:00.931Z,8.68
2023-02-21T21:09:41.069Z,8.43
2023-02-21T21:12:12.589Z,8.43
2023-02-21T21:14:44.609Z,9.10
2023-02-21T21:17:16.325Z,8.88
2023-02-21T21:19:45.661Z,10.43
2023-02-21T21:22:22.614Z,9.35
2023-02-21T21:24:52.439Z,11.18
2023-02-21T21:27:21.374Z,9.93
2023-02-21T21:29:49.786Z,10.55
2023-02-21T21:32:20.148Z,11.40
2023-02-21T21:34:52.988Z,9.98
2023-02-21T21:37:25.682Z,8.57
2023-02-21T21:39:57.308Z,8.90
2023-02-21T21:42:28.369Z,8.57
2023-02-21T21:44:57.744Z,8.55
2023-02-21T21:47:34.861Z,8.43
2023-02-21T21:50:05.321Z,8.18
2023-02-21T21:52:33.592Z,8.30
2023-02-21T21:55:01.268Z,7.75
2023-02-21T21:57:29.017Z,8.15
2023-02-21T21:59:56.911Z,7.60
2023-02-21T22:02:24.658Z,9.20
2023-02-21T22:04:54.270Z,6.93
2023-02-21T22:07:22.070Z,6.40
2023-02-21T22:09:49.695Z,6.15
2023-02-21T22:12:19.264Z,6.15
2023-02-21T22:14:46.931Z,5.47
2023-02-21T22:17:14.604Z,6.03
2023-02-21T22:19:42.536Z,6.28
2023-02-21T22:22:10.171Z,7.00
2023-02-21T22:24:41.684Z,7.18
2023-02-21T22:27:09.328Z,6.50
2023-02-21T22:29:37.044Z,7.57
2023-02-21T22:32:04.694Z,8.95
2023-02-21T22:34:32.386Z,8.48
2023-02-21T22:37:00.320Z,7.53
2023-02-21T22:39:28.380Z,8.25
2023-02-21T22:41:56.102Z,7.85
2023-02-21T22:44:26.797Z,8.10
2023-02-21T22:47:00.988Z,7.22
2023-02-21T22:49:29.404Z,7.60
2023-02-21T22:51:58.537Z,7.53
2023-02-21T22:54:26.984Z,7.62
2023-02-21T22:56:55.941Z,7.55
2023-02-21T22:59:28.091Z,6.68
2023-02-21T23:01:59.451Z,6.85
2023-02-21T23:04:27.445Z,6.10
2023-02-21T23:06:57.062Z,7.05
2023-02-21T23:09:25.569Z,6.57
2023-02-21T23:11:56.222Z,5.70
2023-02-21T23:14:23.933Z,6.82
2023-02-21T23:16:52.392Z,5.80
2023-02-21T23:19:20.103Z,6.40
2023-02-21T23:21:53.848Z,7.35
2023-02-21T23:24:22.921Z,7.55
2023-02-21T23:26:54.920Z,6.40
2023-02-21T23:29:25.794Z,6.87
2023-02-21T23:31:58.312Z,6.20
2023-02-21T23:34:41.258Z,5.85
2023-02-21T23:37:13.043Z,6.25
2023-02-21T23:39:42.073Z,6.25
2023-02-21T23:42:11.937Z,6.18
2023-02-21T23:44:39.736Z,5.85
2023-02-21T23:47:07.429Z,6.28
2023-02-21T23:49:35.114Z,6.35
2023-02-21T23:52:02.844Z,6.30
2023-02-21T23:54:30.646Z,6.82
2023-02-21T23:57:01.542Z,6.62
2023-02-21T23:59:29.549Z,6.57
